createdAt,value
2023-02-12T00:04:38.403Z,103638.00
2023-02-12T00:15:01.213Z,103646.00
2023-02-12T00:25:25.904Z,103665.00
2023-02-12T00:35:57.083Z,103674.00
2023-02-12T00:46:19.502Z,103672.00
2023-02-12T00:56:42.887Z,103685.00
2023-02-12T01:07:05.210Z,103711.00
2023-02-12T01:17:28.664Z,103712.00
2023-02-12T01:27:52.621Z,103717.00
2023-02-12T01:38:16.440Z,103717.00
2023-02-12T01:48:40.846Z,103725.00
2023-02-12T01:59:04.398Z,103730.00
2023-02-12T02:09:31.069Z,103740.00
2023-02-12T02:20:38.016Z,103732.00
2023-02-12T02:31:06.048Z,103730.00
2023-02-12T02:41:34.862Z,103736.00
2023-02-12T02:52:04.541Z,103735.00
2023-02-12T03:02:30.387Z,103750.00
2023-02-12T03:12:59.237Z,103770.00
2023-02-12T03:23:26.138Z,103780.00
2023-02-12T03:34:01.443Z,103775.00
2023-02-12T03:44:33.244Z,103786.00
2023-02-12T03:54:56.227Z,103795.00
2023-02-12T04:05:20.090Z,103806.00
2023-02-12T04:16:01.378Z,103812.00
2023-02-12T04:26:29.149Z,103818.00
2023-02-12T04:36:57.916Z,103820.00
2023-02-12T04:47:20.596Z,103835.00
2023-02-12T04:57:44.107Z,103827.00
2023-02-12T05:08:06.202Z,103832.00
2023-02-12T05:18:29.062Z,103851.00
2023-02-12T05:28:51.200Z,103856.00
2023-02-12T05:39:13.983Z,103863.00
2023-02-12T05:49:35.682Z,103865.00
2023-02-12T05:59:58.877Z,103863.00
2023-02-12T06:10:20.829Z,103870.00
2023-02-12T06:20:43.850Z,103871.00
2023-02-12T06:31:06.470Z,103905.00
2023-02-12T06:41:30.000Z,103913.00
2023-02-12T06:51:51.582Z,103921.00
2023-02-12T07:02:14.469Z,103940.00
2023-02-12T07:12:36.244Z,103954.00
2023-02-12T07:22:59.379Z,103948.00
2023-02-12T07:33:21.666Z,103971.00
2023-02-12T07:43:46.864Z,103957.00
2023-02-12T07:54:08.720Z,103976.00
2023-02-12T08:04:31.952Z,103976.00
2023-02-12T08:14:54.352Z,103982.00
2023-02-12T08:25:17.569Z,103993.00
2023-02-12T08:35:39.120Z,104012.00
2023-02-12T08:46:06.869Z,104024.00
2023-02-12T08:56:30.764Z,104020.00
2023-02-12T09:06:54.409Z,104023.00
2023-02-12T09:17:16.216Z,104025.00
2023-02-12T09:27:39.509Z,104045.00
2023-02-12T09:38:01.017Z,104063.00
2023-02-12T09:48:41.877Z,104062.00
2023-02-12T09:59:07.568Z,104061.00
2023-02-12T10:09:52.519Z,104051.00
2023-02-12T10:20:40.334Z,104057.00
2023-02-12T10:31:08.599Z,104059.00
2023-02-12T10:41:32.509Z,104053.00
2023-02-12T10:52:04.834Z,104038.00
2023-02-12T11:02:29.547Z,104047.00
2023-02-12T11:12:52.843Z,104050.00
2023-02-12T11:23:26.109Z,104049.00
2023-02-12T11:34:06.895Z,104041.00
2023-02-12T11:44:31.195Z,104038.00
2023-02-12T11:54:57.061Z,104039.00
2023-02-12T12:05:22.128Z,104025.00
2023-02-12T12:16:06.949Z,104026.00
2023-02-12T12:26:31.030Z,104005.00
2023-02-12T12:37:18.152Z,103996.00
2023-02-12T12:47:52.557Z,103986.00
2023-02-12T12:58:22.728Z,103979.00
2023-02-12T13:09:03.146Z,103971.00
2023-02-12T13:19:40.156Z,103961.00
2023-02-12T13:30:06.938Z,103991.00
2023-02-12T13:40:31.817Z,103990.00
2023-02-12T13:51:01.413Z,103972.00
2023-02-12T14:01:47.476Z,103964.00
2023-02-12T14:12:14.264Z,103947.00
2023-02-12T14:23:26.615Z,103952.00
2023-02-12T14:33:50.906Z,103970.00
2023-02-12T14:44:47.020Z,103973.00
2023-02-12T14:55:24.196Z,103969.00
2023-02-12T15:05:53.646Z,103972.00
2023-02-12T15:16:25.129Z,103973.00
2023-02-12T15:26:49.862Z,103970.00
2023-02-12T15:37:22.165Z,103989.00
2023-02-12T15:47:58.934Z,103993.00
2023-02-12T15:58:25.433Z,103994.00
2023-02-12T16:08:50.091Z,103998.00
2023-02-12T16:19:21.806Z,104001.00
2023-02-12T16:29:47.516Z,104001.00
2023-02-12T16:40:29.937Z,104015.00
2023-02-12T16:50:54.624Z,104014.00
2023-02-12T17:01:22.764Z,104026.00
2023-02-12T17:11:46.155Z,104033.00
2023-02-12T17:22:19.629Z,104031.00
2023-02-12T17:32:50.965Z,104031.00
2023-02-12T17:43:14.269Z,104051.00
2023-02-12T17:53:35.915Z,104064.00
2023-02-12T18:04:00.235Z,104050.00
2023-02-12T18:14:22.223Z,104074.00
2023-02-12T18:24:45.815Z,104066.00
2023-02-12T18:35:13.448Z,104071.00
2023-02-12T18:45:36.617Z,104070.00
2023-02-12T18:55:59.060Z,104069.00
2023-02-12T19:06:22.530Z,104064.00
2023-02-12T19:16:45.673Z,104063.00
2023-02-12T19:27:09.634Z,104084.00
2023-02-12T19:37:31.969Z,104078.00
2023-02-12T19:47:55.468Z,104082.00
2023-02-12T19:58:17.133Z,104061.00
2023-02-12T20:08:42.073Z,104068.00
2023-02-12T20:19:06.759Z,104072.00
2023-02-12T20:29:29.829Z,104071.00
2023-02-12T20:39:51.538Z,104076.00
2023-02-12T20:50:17.623Z,104069.00
2023-02-12T21:00:49.182Z,104054.00
2023-02-12T21:11:15.355Z,104051.00
2023-02-12T21:21:38.936Z,104045.00
2023-02-12T21:32:02.346Z,104055.00
2023-02-12T21:42:24.126Z,104036.00
2023-02-12T21:52:47.235Z,104044.00
2023-02-12T22:03:10.235Z,104040.00
2023-02-12T22:13:34.131Z,104037.00
2023-02-12T22:23:57.228Z,104031.00
2023-02-12T22:34:21.231Z,104038.00
2023-02-12T22:44:43.132Z,104037.00
2023-02-12T22:55:09.238Z,104045.00
2023-02-12T23:05:31.083Z,104049.00
2023-02-12T23:15:55.143Z,104038.00
2023-02-12T23:26:17.346Z,104026.00
2023-02-12T23:36:40.808Z,104023.00
2023-02-12T23:47:02.638Z,104022.00
2023-02-12T23:57:29.104Z,104013.00
